Nokomis, Canada
Current Conditions -  °F | °C
As of 3:31 PM on Wednesday 22 Oct 2014 (Local Time) from CYQR Reporting Station
Broken Clouds Broken Clouds  
Wind Chill: 50°   Ceiling: 2000
Heat Index: 50°   Visibility: 15mi
Dew Point: 48°   Wind: 9mph
Humidity: 94%   Direction: 300°WNW
Pressure: 29.75"   Gusts: NA
Location:  51.52°N, 105.02°W
Report Text: CYQR 222131Z 30008KT 15SM SCT008 BKN020 10/09 A2975 RMK SC3SC4 SLP088 DENSITY ALT 1900FT
Loading
Personal Weather Stations






























Interactive Weather Map
Tropical Storm Tracking
New forecast layout! Learn more

10-Day Weather Forecast

Advertisements
Track Severe Weather on mobile